createdAt,value
2019-04-14T00:00:01.147Z,51.52
2019-04-14T00:02:31.707Z,52.18
2019-04-14T00:05:00.305Z,51.64
2019-04-14T00:07:27.678Z,52.92
2019-04-14T00:09:56.271Z,52.37
2019-04-14T00:12:23.417Z,52.62
2019-04-14T00:14:51.214Z,51.51
2019-04-14T00:17:19.222Z,51.98
2019-04-14T00:19:46.199Z,51.48
2019-04-14T00:22:14.081Z,50.90
2019-04-14T00:24:40.936Z,51.07
2019-04-14T00:27:08.540Z,54.23
2019-04-14T00:29:37.051Z,55.92
2019-04-14T00:32:05.200Z,55.97
2019-04-14T00:34:35.332Z,55.69
2019-04-14T00:37:05.497Z,54.91
2019-04-14T00:39:34.325Z,53.39
2019-04-14T00:42:04.988Z,53.42
2019-04-14T00:44:34.018Z,55.05
2019-04-14T00:47:03.041Z,54.04
2019-04-14T00:49:29.768Z,53.72
2019-04-14T00:51:57.785Z,52.48
2019-04-14T00:54:26.007Z,53.22
2019-04-14T00:56:54.082Z,52.62
2019-04-14T00:59:20.835Z,51.75
2019-04-14T01:01:48.409Z,53.51
2019-04-14T01:04:16.557Z,50.81
2019-04-14T01:06:44.712Z,51.42
2019-04-14T01:09:13.522Z,53.49
2019-04-14T01:11:40.401Z,51.74
2019-04-14T01:14:08.007Z,53.09
2019-04-14T01:16:34.967Z,53.10
2019-04-14T01:19:02.562Z,50.93
2019-04-14T01:21:30.615Z,53.32
2019-04-14T01:23:58.816Z,52.53
2019-04-14T01:26:26.682Z,53.08
2019-04-14T01:28:54.791Z,49.96
2019-04-14T01:31:23.074Z,50.66
2019-04-14T01:33:49.722Z,50.91
2019-04-14T01:36:17.030Z,52.00
2019-04-14T01:38:44.892Z,51.59
2019-04-14T01:41:12.833Z,51.46
2019-04-14T01:43:40.580Z,50.41
2019-04-14T01:46:14.858Z,50.38
2019-04-14T01:48:36.712Z,52.01
2019-04-14T01:51:05.501Z,51.86
2019-04-14T01:53:34.211Z,50.15
2019-04-14T01:56:03.497Z,52.84
2019-04-14T01:58:32.153Z,51.18
2019-04-14T02:01:01.845Z,51.22
2019-04-14T02:03:30.157Z,52.13
2019-04-14T02:05:58.190Z,48.81
2019-04-14T02:08:26.248Z,52.63
2019-04-14T02:10:52.940Z,52.04
2019-04-14T02:13:20.353Z,51.60
2019-04-14T02:15:48.425Z,52.35
2019-04-14T02:18:16.405Z,52.22
2019-04-14T02:20:44.607Z,51.97
2019-04-14T02:23:12.549Z,53.45
2019-04-14T02:25:40.429Z,53.74
2019-04-14T02:28:07.581Z,55.23
2019-04-14T02:30:41.707Z,55.17
2019-04-14T02:33:31.906Z,51.79
2019-04-14T02:38:34.476Z,54.95
2019-04-14T02:41:04.234Z,53.40
2019-04-14T02:43:29.564Z,56.07
2019-04-14T02:46:05.845Z,52.85
2019-04-14T02:50:48.208Z,52.49
2019-04-14T02:53:29.190Z,52.46
2019-04-14T02:55:49.150Z,53.18
2019-04-14T02:58:20.270Z,52.55
2019-04-14T03:03:16.926Z,53.85
2019-04-14T03:05:47.780Z,53.35
2019-04-14T03:08:07.525Z,54.09
2019-04-14T03:11:44.352Z,52.48
2019-04-14T03:16:47.249Z,55.57
2019-04-14T03:21:34.788Z,55.40
2019-04-14T03:24:15.892Z,56.47
2019-04-14T03:26:35.616Z,56.40
2019-04-14T03:29:05.380Z,54.57
2019-04-14T03:34:30.627Z,56.33
2019-04-14T03:37:22.006Z,55.23
2019-04-14T03:43:58.093Z,56.98
2019-04-14T03:46:34.472Z,56.89
2019-04-14T03:48:58.308Z,56.58
2019-04-14T03:51:28.326Z,54.83
2019-04-14T03:56:01.920Z,56.40
2019-04-14T03:58:23.212Z,56.87
2019-04-14T04:00:51.339Z,56.01
2019-04-14T04:03:19.515Z,56.37
2019-04-14T04:05:47.756Z,57.46
2019-04-14T04:08:15.711Z,56.52
2019-04-14T04:10:46.583Z,55.18
2019-04-14T04:13:13.306Z,55.85
2019-04-14T04:15:41.107Z,55.26
2019-04-14T04:18:09.791Z,55.33
2019-04-14T04:20:39.324Z,54.72
2019-04-14T04:23:07.950Z,54.34
2019-04-14T04:25:36.401Z,55.21
2019-04-14T04:28:06.036Z,54.83
2019-04-14T04:30:34.754Z,53.50
2019-04-14T04:33:04.392Z,53.24
2019-04-14T04:35:34.627Z,54.49
2019-04-14T04:38:03.427Z,54.41
2019-04-14T04:40:31.683Z,54.79
2019-04-14T04:42:59.091Z,55.48
2019-04-14T04:45:27.789Z,55.51
2019-04-14T04:47:55.539Z,54.72
2019-04-14T04:50:23.802Z,54.88
2019-04-14T04:52:51.782Z,54.58
2019-04-14T04:55:19.813Z,54.09
2019-04-14T04:57:46.747Z,53.69
2019-04-14T05:00:13.799Z,52.38
2019-04-14T05:02:41.700Z,54.00
2019-04-14T05:05:14.488Z,53.25
2019-04-14T05:07:41.142Z,53.27
2019-04-14T05:10:10.900Z,51.94
2019-04-14T05:12:39.838Z,54.56
2019-04-14T05:15:09.499Z,52.02
2019-04-14T05:17:38.877Z,53.55
2019-04-14T05:20:07.278Z,54.19
2019-04-14T05:22:35.318Z,51.79
2019-04-14T05:25:04.303Z,52.06
2019-04-14T05:27:31.934Z,53.66
2019-04-14T05:30:00.315Z,52.50
2019-04-14T05:32:28.404Z,50.63
2019-04-14T05:34:56.465Z,51.97
2019-04-14T05:37:24.664Z,51.62
2019-04-14T05:39:52.602Z,51.27
2019-04-14T05:42:24.058Z,49.60
2019-04-14T05:44:49.335Z,49.14
2019-04-14T05:47:17.567Z,48.81
2019-04-14T05:49:49.404Z,48.06
2019-04-14T05:52:14.074Z,50.11
2019-04-14T05:54:40.789Z,49.02
2019-04-14T05:57:07.409Z,48.62
2019-04-14T05:59:35.326Z,48.78
2019-04-14T06:02:02.591Z,46.37
2019-04-14T06:04:30.936Z,48.58
2019-04-14T06:06:57.798Z,47.16
2019-04-14T06:09:24.390Z,46.27
2019-04-14T06:11:51.105Z,44.59
2019-04-14T06:14:17.683Z,44.46
2019-04-14T06:16:46.639Z,45.59
2019-04-14T06:19:13.302Z,46.13
2019-04-14T06:21:39.920Z,43.67
2019-04-14T06:24:08.001Z,43.65
2019-04-14T06:26:34.661Z,42.39
2019-04-14T06:29:01.358Z,42.15
2019-04-14T06:31:29.930Z,42.75
2019-04-14T06:33:58.494Z,41.85
2019-04-14T06:36:27.186Z,41.58
2019-04-14T06:38:55.803Z,41.79
2019-04-14T06:41:22.386Z,41.59
2019-04-14T06:43:49.426Z,41.36
2019-04-14T06:46:16.174Z,41.81
2019-04-14T06:48:42.737Z,40.60
2019-04-14T06:51:09.311Z,39.30
2019-04-14T06:53:36.223Z,39.28
2019-04-14T06:56:03.275Z,39.83
2019-04-14T06:58:29.973Z,39.76
2019-04-14T07:00:56.656Z,39.53
2019-04-14T07:03:23.362Z,38.29
2019-04-14T07:05:50.056Z,40.50
2019-04-14T07:08:16.677Z,37.90
2019-04-14T07:10:43.676Z,37.32
2019-04-14T07:13:13.803Z,37.83
2019-04-14T07:15:39.005Z,37.24
2019-04-14T07:18:05.942Z,38.15
2019-04-14T07:20:32.688Z,38.18
2019-04-14T07:22:59.370Z,38.14
2019-04-14T07:25:26.067Z,37.80
2019-04-14T07:27:52.761Z,37.54
2019-04-14T07:30:21.394Z,37.21
2019-04-14T07:32:50.273Z,36.18
2019-04-14T07:35:16.878Z,36.81
2019-04-14T07:37:45.471Z,35.70
2019-04-14T07:40:14.232Z,36.26
2019-04-14T07:42:42.781Z,36.36
2019-04-14T07:45:12.313Z,35.36
2019-04-14T07:47:41.126Z,34.25
2019-04-14T07:50:14.947Z,35.31
2019-04-14T07:52:40.703Z,34.90
2019-04-14T07:55:09.663Z,35.32
2019-04-14T07:57:38.249Z,34.81
2019-04-14T08:00:08.743Z,33.80
2019-04-14T08:02:37.430Z,34.22
2019-04-14T08:05:06.978Z,34.29
2019-04-14T08:07:33.651Z,33.72
2019-04-14T08:10:00.483Z,33.70
2019-04-14T08:12:27.387Z,33.20
2019-04-14T08:14:54.163Z,33.43
2019-04-14T08:17:20.769Z,32.93
2019-04-14T08:19:47.400Z,34.86
2019-04-14T08:22:14.359Z,32.54
2019-04-14T08:24:41.159Z,33.34
2019-04-14T08:27:07.885Z,32.30
2019-04-14T08:29:34.708Z,31.83
2019-04-14T08:32:01.553Z,32.17
2019-04-14T08:34:29.266Z,31.65
2019-04-14T08:36:56.055Z,32.52
2019-04-14T08:39:22.769Z,32.01
2019-04-14T08:41:51.435Z,32.86
2019-04-14T08:44:19.968Z,31.63
2019-04-14T08:46:48.474Z,31.86
2019-04-14T08:49:17.214Z,31.83
2019-04-14T08:51:45.745Z,30.95
2019-04-14T08:54:14.349Z,31.15
2019-04-14T08:56:42.881Z,30.57
2019-04-14T08:59:11.718Z,31.75
2019-04-14T09:01:38.855Z,29.87
2019-04-14T09:04:07.555Z,30.52
2019-04-14T09:06:36.215Z,30.75
2019-04-14T09:09:07.422Z,30.69
2019-04-14T09:11:34.327Z,31.24
2019-04-14T09:14:01.353Z,30.87
2019-04-14T09:16:27.943Z,30.99
2019-04-14T09:19:06.900Z,30.90
2019-04-14T09:21:23.159Z,31.32
2019-04-14T09:23:51.200Z,31.22
2019-04-14T09:26:17.848Z,31.23
2019-04-14T09:28:44.472Z,29.84
2019-04-14T09:31:11.163Z,29.34
2019-04-14T09:33:37.902Z,30.71
2019-04-14T09:36:04.586Z,28.74
2019-04-14T09:38:31.193Z,30.02
2019-04-14T09:40:57.781Z,30.43
2019-04-14T09:43:24.410Z,30.62
2019-04-14T09:45:51.005Z,30.06
2019-04-14T09:48:17.569Z,31.04
2019-04-14T09:50:44.364Z,30.90
2019-04-14T09:53:11.181Z,29.88
2019-04-14T09:55:38.962Z,29.15
2019-04-14T09:58:05.725Z,30.06
2019-04-14T10:00:34.385Z,29.26
2019-04-14T10:03:01.140Z,28.65
2019-04-14T10:05:27.921Z,27.85
2019-04-14T10:07:54.741Z,27.73
2019-04-14T10:10:21.646Z,28.46
2019-04-14T10:12:48.417Z,28.03
2019-04-14T10:15:15.098Z,27.58
2019-04-14T10:17:41.769Z,27.71
2019-04-14T10:20:08.606Z,26.51
2019-04-14T10:22:35.331Z,27.81
2019-04-14T10:25:03.919Z,28.30
2019-04-14T10:27:30.684Z,27.39
2019-04-14T10:29:57.718Z,27.73
2019-04-14T10:32:24.316Z,27.60
2019-04-14T10:34:51.054Z,27.69
2019-04-14T10:37:17.753Z,27.46
2019-04-14T10:39:44.480Z,26.39
2019-04-14T10:42:11.099Z,26.92
2019-04-14T10:44:41.128Z,26.62
2019-04-14T10:47:08.377Z,26.69
2019-04-14T10:49:35.420Z,27.00
2019-04-14T10:52:02.298Z,26.74
2019-04-14T10:54:29.340Z,26.64
2019-04-14T10:56:55.923Z,26.32
2019-04-14T10:59:22.657Z,25.89
2019-04-14T11:01:49.553Z,26.53
2019-04-14T11:04:16.388Z,26.04
2019-04-14T11:06:45.882Z,26.21
2019-04-14T11:09:14.633Z,26.47
2019-04-14T11:11:41.647Z,26.33
2019-04-14T11:14:08.314Z,26.22
2019-04-14T11:16:35.056Z,26.61
2019-04-14T11:19:01.978Z,25.95
2019-04-14T11:21:28.692Z,26.23
2019-04-14T11:23:55.384Z,26.06
2019-04-14T11:26:22.305Z,25.92
2019-04-14T11:28:49.125Z,25.61
2019-04-14T11:31:17.718Z,26.05
2019-04-14T11:33:46.241Z,25.32
2019-04-14T11:36:14.842Z,25.72
2019-04-14T11:38:43.550Z,25.74
2019-04-14T11:41:12.313Z,25.86
2019-04-14T11:43:38.946Z,25.44
2019-04-14T11:46:09.714Z,25.80
2019-04-14T11:48:36.584Z,25.39
2019-04-14T11:51:03.562Z,24.91
2019-04-14T11:53:30.517Z,25.73
2019-04-14T11:55:57.245Z,25.69
2019-04-14T11:58:24.050Z,24.89
2019-04-14T12:00:52.832Z,24.61
2019-04-14T12:03:19.547Z,24.72
2019-04-14T12:05:48.405Z,25.13
2019-04-14T12:08:17.088Z,24.83
2019-04-14T12:10:43.878Z,24.59
2019-04-14T12:13:12.450Z,24.38
2019-04-14T12:15:39.114Z,24.23
2019-04-14T12:18:06.690Z,23.82
2019-04-14T12:20:33.323Z,24.13
2019-04-14T12:23:00.145Z,24.25
2019-04-14T12:25:26.727Z,23.60
2019-04-14T12:27:53.566Z,24.53
2019-04-14T12:30:20.568Z,23.82
2019-04-14T12:32:47.260Z,23.92
2019-04-14T12:35:14.776Z,22.85
2019-04-14T12:37:41.544Z,23.63
2019-04-14T12:40:08.697Z,24.32
2019-04-14T12:42:37.382Z,23.54
2019-04-14T12:45:07.880Z,23.76
2019-04-14T12:47:40.111Z,23.57
2019-04-14T12:50:08.920Z,23.51
2019-04-14T12:52:35.674Z,23.06
2019-04-14T12:55:05.263Z,23.41
2019-04-14T12:57:33.750Z,23.29
2019-04-14T13:00:00.457Z,23.11
2019-04-14T13:02:29.048Z,24.15
2019-04-14T13:04:55.710Z,23.39
2019-04-14T13:07:22.441Z,23.05
2019-04-14T13:09:49.144Z,22.63
2019-04-14T13:12:15.984Z,22.62
2019-04-14T13:14:42.797Z,21.32
2019-04-14T13:17:09.540Z,21.69
2019-04-14T13:19:36.439Z,22.00
2019-04-14T13:22:03.601Z,22.53
2019-04-14T13:24:30.385Z,21.91
2019-04-14T13:26:57.103Z,21.78
2019-04-14T13:29:24.050Z,22.21
2019-04-14T13:31:50.822Z,22.54
2019-04-14T13:34:17.810Z,22.16
2019-04-14T13:36:44.713Z,22.44
2019-04-14T13:39:12.790Z,21.80
2019-04-14T13:41:39.922Z,21.83
2019-04-14T13:44:06.974Z,21.89
2019-04-14T13:46:33.741Z,22.07
2019-04-14T13:49:00.550Z,22.13
2019-04-14T13:51:27.427Z,22.05
2019-04-14T13:53:54.138Z,21.88
2019-04-14T13:56:21.024Z,21.71
2019-04-14T13:58:47.710Z,22.60
2019-04-14T14:01:14.489Z,21.91
2019-04-14T14:03:41.125Z,22.77
2019-04-14T14:06:09.110Z,22.04
2019-04-14T14:08:36.038Z,22.18
2019-04-14T14:11:04.910Z,21.93
2019-04-14T14:13:33.457Z,21.19
2019-04-14T14:16:02.444Z,21.19
2019-04-14T14:18:31.046Z,22.11
2019-04-14T14:20:59.773Z,21.32
2019-04-14T14:23:28.355Z,21.17
2019-04-14T14:25:56.868Z,20.87
2019-04-14T14:28:23.427Z,22.24
2019-04-14T14:30:50.060Z,21.70
2019-04-14T14:33:18.273Z,21.93
2019-04-14T14:35:45.149Z,21.45
2019-04-14T14:38:12.073Z,21.70
2019-04-14T14:40:38.831Z,21.15
2019-04-14T14:43:05.596Z,21.21
2019-04-14T14:45:34.212Z,21.21
2019-04-14T14:48:02.893Z,21.08
2019-04-14T14:50:31.480Z,21.23
2019-04-14T14:52:58.086Z,21.39
2019-04-14T14:55:24.659Z,21.09
2019-04-14T14:57:51.339Z,21.34
2019-04-14T15:00:20.162Z,21.47
2019-04-14T15:02:46.808Z,20.81
2019-04-14T15:05:13.471Z,21.06
2019-04-14T15:07:40.136Z,21.16
2019-04-14T15:10:07.029Z,21.39
2019-04-14T15:12:33.670Z,21.49
2019-04-14T15:15:00.427Z,21.68
2019-04-14T15:17:27.257Z,21.83
2019-04-14T15:19:57.131Z,22.71
2019-04-14T15:22:23.974Z,22.13
2019-04-14T15:24:50.529Z,22.59
2019-04-14T15:27:17.669Z,21.93
2019-04-14T15:29:44.241Z,21.10
2019-04-14T15:32:10.978Z,21.72
2019-04-14T15:34:37.778Z,21.96
2019-04-14T15:37:04.662Z,22.12
2019-04-14T15:39:31.257Z,21.44
2019-04-14T15:41:58.102Z,22.28
2019-04-14T15:44:24.699Z,22.17
2019-04-14T15:46:51.430Z,22.20
2019-04-14T15:49:18.216Z,22.07
2019-04-14T15:51:44.807Z,22.51
2019-04-14T15:54:11.364Z,22.50
2019-04-14T15:56:39.998Z,22.39
2019-04-14T15:59:08.760Z,22.90
2019-04-14T16:01:37.499Z,23.42
2019-04-14T16:04:06.434Z,23.14
2019-04-14T16:06:35.055Z,23.04
2019-04-14T16:09:03.588Z,23.38
2019-04-14T16:11:32.071Z,23.87
2019-04-14T16:14:01.035Z,24.00
2019-04-14T16:16:29.680Z,24.52
2019-04-14T16:18:58.263Z,24.35
2019-04-14T16:21:26.318Z,24.36
2019-04-14T16:23:52.929Z,25.06
2019-04-14T16:26:19.783Z,25.49
2019-04-14T16:28:48.342Z,25.30
2019-04-14T16:31:16.944Z,25.36
2019-04-14T16:33:45.470Z,25.77
2019-04-14T16:36:12.377Z,25.99
2019-04-14T16:39:36.905Z,26.10
2019-04-14T16:42:05.226Z,26.18
2019-04-14T16:44:31.923Z,26.18
2019-04-14T16:46:58.616Z,26.63
2019-04-14T16:49:25.324Z,26.40
2019-04-14T16:51:54.377Z,27.09
2019-04-14T16:54:22.906Z,26.70
2019-04-14T16:56:51.448Z,27.15
2019-04-14T16:59:18.003Z,27.04
2019-04-14T17:01:46.055Z,27.36
2019-04-14T17:04:15.629Z,26.77
2019-04-14T17:06:42.339Z,27.00
2019-04-14T17:09:08.978Z,28.05
2019-04-14T17:11:39.231Z,28.64
2019-04-14T17:14:07.858Z,27.93
2019-04-14T17:16:37.546Z,28.74
2019-04-14T17:19:06.197Z,28.53
2019-04-14T17:21:37.933Z,28.89
2019-04-14T17:24:16.261Z,29.26
2019-04-14T17:26:37.192Z,28.84
2019-04-14T17:29:05.780Z,29.85
2019-04-14T17:31:34.556Z,30.12
2019-04-14T17:34:03.051Z,30.64
2019-04-14T17:36:31.768Z,31.52
2019-04-14T17:39:01.995Z,31.54
2019-04-14T17:41:32.504Z,30.11
2019-04-14T17:44:01.223Z,30.47
2019-04-14T17:46:29.999Z,31.07
2019-04-14T17:48:56.969Z,31.62
2019-04-14T17:51:25.596Z,31.29
2019-04-14T17:53:54.305Z,31.27
2019-04-14T17:57:18.796Z,31.75
2019-04-14T17:59:47.352Z,32.13
2019-04-14T18:02:16.001Z,32.58
2019-04-14T18:04:44.784Z,33.63
2019-04-14T18:07:13.421Z,33.07
2019-04-14T18:09:42.086Z,32.96
2019-04-14T18:12:12.577Z,33.92
2019-04-14T18:14:41.110Z,32.80
2019-04-14T18:17:09.814Z,33.76
2019-04-14T18:19:38.513Z,34.19
2019-04-14T18:22:05.307Z,35.72
2019-04-14T18:24:42.060Z,35.17
2019-04-14T18:27:02.106Z,34.93
2019-04-14T18:29:30.852Z,34.61
2019-04-14T18:31:59.497Z,35.25
2019-04-14T18:34:28.213Z,34.92
2019-04-14T18:36:56.828Z,35.03
2019-04-14T18:39:25.333Z,35.67
2019-04-14T18:41:53.872Z,35.56
2019-04-14T18:44:22.626Z,36.90
2019-04-14T18:46:51.179Z,36.48
2019-04-14T18:49:20.324Z,36.49
2019-04-14T18:51:51.124Z,36.94
2019-04-14T18:54:20.025Z,37.59
2019-04-14T18:56:46.690Z,37.50
2019-04-14T18:59:15.558Z,36.83
2019-04-14T19:01:44.147Z,36.62
2019-04-14T19:04:10.733Z,36.64
2019-04-14T19:06:37.419Z,37.63
2019-04-14T19:09:06.716Z,37.15
2019-04-14T19:11:37.131Z,37.29
2019-04-14T19:14:05.691Z,36.75
2019-04-14T19:16:39.593Z,37.44
2019-04-14T19:19:04.581Z,37.32
2019-04-14T19:21:32.174Z,37.54
2019-04-14T19:23:58.952Z,37.30
2019-04-14T19:26:25.710Z,38.13
2019-04-14T19:28:52.314Z,37.60
2019-04-14T19:31:19.097Z,38.18
2019-04-14T19:33:47.046Z,37.92
2019-04-14T19:36:13.863Z,37.76
2019-04-14T19:38:42.340Z,38.19
2019-04-14T19:41:09.571Z,37.84
2019-04-14T19:43:36.525Z,38.01
2019-04-14T19:46:03.635Z,38.25
2019-04-14T19:48:30.982Z,38.73
2019-04-14T19:50:58.047Z,39.52
2019-04-14T19:53:25.247Z,39.00
2019-04-14T19:55:52.472Z,39.02
2019-04-14T19:58:19.509Z,39.40
2019-04-14T20:00:46.924Z,39.64
2019-04-14T20:03:13.690Z,39.27
2019-04-14T20:05:45.280Z,39.33
2019-04-14T20:08:15.069Z,39.52
2019-04-14T20:10:42.849Z,39.39
2019-04-14T20:13:10.060Z,40.48
2019-04-14T20:15:39.181Z,39.42
2019-04-14T20:18:08.027Z,39.62
2019-04-14T20:20:36.683Z,39.87
2019-04-14T20:23:05.892Z,39.59
2019-04-14T20:25:34.716Z,40.69
2019-04-14T20:28:03.519Z,40.66
2019-04-14T20:30:32.886Z,40.47
2019-04-14T20:32:59.723Z,40.58
2019-04-14T20:35:26.770Z,41.15
2019-04-14T20:37:53.405Z,41.01
2019-04-14T20:40:20.118Z,41.55
2019-04-14T20:42:46.809Z,41.39
2019-04-14T20:45:14.074Z,41.21
2019-04-14T20:47:40.749Z,42.48
2019-04-14T20:50:08.073Z,41.71
2019-04-14T20:52:36.614Z,42.71
2019-04-14T20:55:05.831Z,43.16
2019-04-14T20:57:32.641Z,42.22
2019-04-14T20:59:59.577Z,42.89
2019-04-14T21:02:28.307Z,44.27
2019-04-14T21:04:54.927Z,44.29
2019-04-14T21:07:23.614Z,45.02
2019-04-14T21:09:52.132Z,43.77
2019-04-14T21:12:20.804Z,44.03
2019-04-14T21:14:49.454Z,44.57
2019-04-14T21:17:17.936Z,44.33
2019-04-14T21:19:46.631Z,44.09
2019-04-14T21:22:16.683Z,44.16
2019-04-14T21:24:45.263Z,44.18
2019-04-14T21:27:14.299Z,44.73
2019-04-14T21:29:42.887Z,44.83
2019-04-14T21:32:11.546Z,45.33
2019-04-14T21:34:40.206Z,44.98
2019-04-14T21:37:08.683Z,45.02
2019-04-14T21:39:40.392Z,44.88
2019-04-14T21:42:06.979Z,45.17
2019-04-14T21:44:33.553Z,44.84
2019-04-14T21:47:00.403Z,44.90
2019-04-14T21:49:27.071Z,45.19
2019-04-14T21:51:55.788Z,45.52
2019-04-14T21:54:22.551Z,44.84
2019-04-14T21:56:51.427Z,45.03
2019-04-14T21:59:19.910Z,46.24
2019-04-14T22:01:48.815Z,45.79
2019-04-14T22:04:17.716Z,45.85
2019-04-14T22:06:46.476Z,45.58
2019-04-14T22:09:15.177Z,46.25
2019-04-14T22:11:42.017Z,45.70
2019-04-14T22:14:08.659Z,46.44
2019-04-14T22:16:35.508Z,46.71
2019-04-14T22:19:02.086Z,46.62
2019-04-14T22:21:28.660Z,47.51
2019-04-14T22:24:01.644Z,46.76
2019-04-14T22:26:26.221Z,46.70
2019-04-14T22:28:52.521Z,46.58
2019-04-14T22:31:19.185Z,46.40
2019-04-14T22:33:45.967Z,46.81
2019-04-14T22:36:12.535Z,47.44
2019-04-14T22:38:40.674Z,47.32
2019-04-14T22:41:07.422Z,46.78
2019-04-14T22:43:33.987Z,46.96
2019-04-14T22:46:00.602Z,47.56
2019-04-14T22:48:27.251Z,48.55
2019-04-14T22:50:53.891Z,47.56
2019-04-14T22:53:20.585Z,47.93
2019-04-14T22:55:47.186Z,47.99
2019-04-14T22:58:14.002Z,47.76
2019-04-14T23:00:42.963Z,48.02
2019-04-14T23:03:11.673Z,47.56
2019-04-14T23:05:40.313Z,47.81
2019-04-14T23:08:17.563Z,47.96
2019-04-14T23:10:46.031Z,47.51
2019-04-14T23:13:14.710Z,48.13
2019-04-14T23:15:43.422Z,47.78
2019-04-14T23:18:12.051Z,48.55
2019-04-14T23:20:41.574Z,48.27
2019-04-14T23:23:10.277Z,48.23
2019-04-14T23:25:37.147Z,48.56
2019-04-14T23:28:03.975Z,49.00
2019-04-14T23:30:30.829Z,48.32
2019-04-14T23:32:57.537Z,47.98
2019-04-14T23:35:24.372Z,48.42
2019-04-14T23:37:51.036Z,48.45
2019-04-14T23:40:17.978Z,48.89
2019-04-14T23:42:44.742Z,48.80
2019-04-14T23:45:11.692Z,48.43
2019-04-14T23:47:38.565Z,48.90
2019-04-14T23:50:07.104Z,49.17
2019-04-14T23:52:33.738Z,48.84
2019-04-14T23:55:00.303Z,49.20
2019-04-14T23:57:26.938Z,49.62
2019-04-14T23:59:53.621Z,49.06
